sensor_id;sensor_type;location;lat;lon;timestamp;P1;durP1;ratioP1;P2;durP2;ratioP2
10283;SDS011;5187;52.378;9.018;2022-11-14T00:01:14;0.00;;;0.00;;
10283;SDS011;5187;52.378;9.018;2022-11-14T00:03:43;0.00;;;0.00;;
10283;SDS011;5187;52.378;9.018;2022-11-14T00:06:11;0.00;;;0.00;;
10283;SDS011;5187;52.378;9.018;2022-11-14T00:08:40;0.00;;;0.00;;
10283;SDS011;5187;52.378;9.018;2022-11-14T00:11:08;0.00;;;0.00;;
10283;SDS011;5187;52.378;9.018;2022-11-14T00:13:38;0.00;;;0.00;;
10283;SDS011;5187;52.378;9.018;2022-11-14T00:16:07;0.00;;;0.00;;
10283;SDS011;5187;52.378;9.018;2022-11-14T00:18:35;0.00;;;0.00;;
10283;SDS011;5187;52.378;9.018;2022-11-14T00:21:03;0.00;;;0.00;;
10283;SDS011;5187;52.378;9.018;2022-11-14T00:23:32;0.00;;;0.00;;
10283;SDS011;5187;52.378;9.018;2022-11-14T00:26:00;0.00;;;0.00;;
10283;SDS011;5187;52.378;9.018;2022-11-14T00:28:29;0.00;;;0.00;;
10283;SDS011;5187;52.378;9.018;2022-11-14T00:30:59;0.00;;;0.00;;
10283;SDS011;5187;52.378;9.018;2022-11-14T00:33:28;0.00;;;0.00;;
10283;SDS011;5187;52.378;9.018;2022-11-14T00:35:56;0.00;;;0.00;;
10283;SDS011;5187;52.378;9.018;2022-11-14T00:38:24;0.00;;;0.00;;
10283;SDS011;5187;52.378;9.018;2022-11-14T00:40:53;0.00;;;0.00;;
10283;SDS011;5187;52.378;9.018;2022-11-14T00:43:22;0.00;;;0.00;;
10283;SDS011;5187;52.378;9.018;2022-11-14T00:45:50;0.00;;;0.00;;
10283;SDS011;5187;52.378;9.018;2022-11-14T00:48:20;0.00;;;0.00;;
10283;SDS011;5187;52.378;9.018;2022-11-14T00:50:49;0.00;;;0.00;;
10283;SDS011;5187;52.378;9.018;2022-11-14T00:53:17;0.00;;;0.00;;
10283;SDS011;5187;52.378;9.018;2022-11-14T00:55:46;0.00;;;0.00;;
10283;SDS011;5187;52.378;9.018;2022-11-14T00:58:14;0.00;;;0.00;;
10283;SDS011;5187;52.378;9.018;2022-11-14T01:00:43;0.00;;;0.00;;
10283;SDS011;5187;52.378;9.018;2022-11-14T01:03:11;0.00;;;0.00;;
10283;SDS011;5187;52.378;9.018;2022-11-14T01:05:41;0.00;;;0.00;;
10283;SDS011;5187;52.378;9.018;2022-11-14T01:08:10;0.00;;;0.00;;
10283;SDS011;5187;52.378;9.018;2022-11-14T01:10:39;0.00;;;0.00;;
10283;SDS011;5187;52.378;9.018;2022-11-14T01:13:07;0.00;;;0.00;;
10283;SDS011;5187;52.378;9.018;2022-11-14T01:15:37;0.10;;;0.10;;
10283;SDS011;5187;52.378;9.018;2022-11-14T01:18:06;0.00;;;0.00;;
10283;SDS011;5187;52.378;9.018;2022-11-14T01:20:36;0.00;;;0.00;;
10283;SDS011;5187;52.378;9.018;2022-11-14T01:23:07;0.00;;;0.00;;
10283;SDS011;5187;52.378;9.018;2022-11-14T01:25:36;0.00;;;0.00;;
10283;SDS011;5187;52.378;9.018;2022-11-14T01:28:05;0.00;;;0.00;;
10283;SDS011;5187;52.378;9.018;2022-11-14T01:30:34;0.00;;;0.00;;
10283;SDS011;5187;52.378;9.018;2022-11-14T01:33:02;0.00;;;0.00;;
10283;SDS011;5187;52.378;9.018;2022-11-14T01:35:31;0.00;;;0.00;;
10283;SDS011;5187;52.378;9.018;2022-11-14T01:38:00;0.00;;;0.00;;
10283;SDS011;5187;52.378;9.018;2022-11-14T01:40:30;0.00;;;0.00;;
10283;SDS011;5187;52.378;9.018;2022-11-14T01:43:19;0.00;;;0.00;;
10283;SDS011;5187;52.378;9.018;2022-11-14T01:45:50;0.00;;;0.00;;
10283;SDS011;5187;52.378;9.018;2022-11-14T01:48:19;0.00;;;0.00;;
10283;SDS011;5187;52.378;9.018;2022-11-14T01:50:49;0.00;;;0.00;;
10283;SDS011;5187;52.378;9.018;2022-11-14T01:53:21;0.00;;;0.00;;
10283;SDS011;5187;52.378;9.018;2022-11-14T01:55:51;0.00;;;0.00;;
10283;SDS011;5187;52.378;9.018;2022-11-14T01:58:20;0.00;;;0.00;;
10283;SDS011;5187;52.378;9.018;2022-11-14T02:00:49;0.00;;;0.00;;
10283;SDS011;5187;52.378;9.018;2022-11-14T02:03:17;0.00;;;0.00;;
10283;SDS011;5187;52.378;9.018;2022-11-14T02:05:46;0.00;;;0.00;;
10283;SDS011;5187;52.378;9.018;2022-11-14T02:08:15;0.00;;;0.00;;
10283;SDS011;5187;52.378;9.018;2022-11-14T02:10:45;0.00;;;0.00;;
10283;SDS011;5187;52.378;9.018;2022-11-14T02:13:14;0.00;;;0.00;;
10283;SDS011;5187;52.378;9.018;2022-11-14T02:15:43;0.00;;;0.00;;
10283;SDS011;5187;52.378;9.018;2022-11-14T02:18:11;0.00;;;0.00;;
10283;SDS011;5187;52.378;9.018;2022-11-14T02:20:41;0.00;;;0.00;;
10283;SDS011;5187;52.378;9.018;2022-11-14T02:23:10;0.00;;;0.00;;
10283;SDS011;5187;52.378;9.018;2022-11-14T02:25:39;0.00;;;0.00;;
10283;SDS011;5187;52.378;9.018;2022-11-14T02:28:08;0.00;;;0.00;;
10283;SDS011;5187;52.378;9.018;2022-11-14T02:30:37;0.00;;;0.00;;
10283;SDS011;5187;52.378;9.018;2022-11-14T02:33:05;0.00;;;0.00;;
10283;SDS011;5187;52.378;9.018;2022-11-14T02:35:37;0.00;;;0.00;;
10283;SDS011;5187;52.378;9.018;2022-11-14T02:38:07;0.00;;;0.00;;
10283;SDS011;5187;52.378;9.018;2022-11-14T02:40:35;0.00;;;0.00;;
10283;SDS011;5187;52.378;9.018;2022-11-14T02:43:04;0.00;;;0.00;;
10283;SDS011;5187;52.378;9.018;2022-11-14T02:45:32;0.00;;;0.00;;
10283;SDS011;5187;52.378;9.018;2022-11-14T02:48:01;0.00;;;0.00;;
10283;SDS011;5187;52.378;9.018;2022-11-14T02:50:29;0.00;;;0.00;;
10283;SDS011;5187;52.378;9.018;2022-11-14T02:52:58;0.00;;;0.00;;
10283;SDS011;5187;52.378;9.018;2022-11-14T02:55:27;0.00;;;0.00;;
10283;SDS011;5187;52.378;9.018;2022-11-14T02:57:56;0.00;;;0.00;;
10283;SDS011;5187;52.378;9.018;2022-11-14T03:00:24;0.00;;;0.00;;
10283;SDS011;5187;52.378;9.018;2022-11-14T03:02:53;0.00;;;0.00;;
10283;SDS011;5187;52.378;9.018;2022-11-14T03:05:22;0.00;;;0.00;;
10283;SDS011;5187;52.378;9.018;2022-11-14T03:07:51;0.00;;;0.00;;
10283;SDS011;5187;52.378;9.018;2022-11-14T03:10:21;0.00;;;0.00;;
10283;SDS011;5187;52.378;9.018;2022-11-14T03:12:53;0.00;;;0.00;;
10283;SDS011;5187;52.378;9.018;2022-11-14T03:15:22;0.00;;;0.00;;
10283;SDS011;5187;52.378;9.018;2022-11-14T03:17:50;0.00;;;0.00;;
10283;SDS011;5187;52.378;9.018;2022-11-14T03:20:19;0.00;;;0.00;;
10283;SDS011;5187;52.378;9.018;2022-11-14T03:22:47;0.00;;;0.00;;
10283;SDS011;5187;52.378;9.018;2022-11-14T03:25:16;0.00;;;0.00;;
10283;SDS011;5187;52.378;9.018;2022-11-14T03:27:44;0.00;;;0.00;;
10283;SDS011;5187;52.378;9.018;2022-11-14T03:30:14;0.00;;;0.00;;
10283;SDS011;5187;52.378;9.018;2022-11-14T03:32:43;0.00;;;0.00;;
10283;SDS011;5187;52.378;9.018;2022-11-14T03:35:11;0.00;;;0.00;;
10283;SDS011;5187;52.378;9.018;2022-11-14T03:37:40;0.00;;;0.00;;
10283;SDS011;5187;52.378;9.018;2022-11-14T03:40:08;0.00;;;0.00;;
10283;SDS011;5187;52.378;9.018;2022-11-14T03:42:37;0.00;;;0.00;;
10283;SDS011;5187;52.378;9.018;2022-11-14T03:45:05;0.00;;;0.00;;
10283;SDS011;5187;52.378;9.018;2022-11-14T03:47:35;0.00;;;0.00;;
10283;SDS011;5187;52.378;9.018;2022-11-14T03:50:04;0.00;;;0.00;;
10283;SDS011;5187;52.378;9.018;2022-11-14T03:52:33;0.00;;;0.00;;
10283;SDS011;5187;52.378;9.018;2022-11-14T03:55:01;0.00;;;0.00;;
10283;SDS011;5187;52.378;9.018;2022-11-14T03:57:29;0.00;;;0.00;;
10283;SDS011;5187;52.378;9.018;2022-11-14T03:59:58;0.00;;;0.00;;
10283;SDS011;5187;52.378;9.018;2022-11-14T04:02:26;0.00;;;0.00;;
10283;SDS011;5187;52.378;9.018;2022-11-14T04:04:56;0.00;;;0.00;;
10283;SDS011;5187;52.378;9.018;2022-11-14T04:07:25;0.00;;;0.00;;
10283;SDS011;5187;52.378;9.018;2022-11-14T04:09:53;0.00;;;0.00;;
10283;SDS011;5187;52.378;9.018;2022-11-14T04:12:22;0.00;;;0.00;;
10283;SDS011;5187;52.378;9.018;2022-11-14T04:14:50;0.00;;;0.00;;
10283;SDS011;5187;52.378;9.018;2022-11-14T04:17:19;0.00;;;0.00;;
10283;SDS011;5187;52.378;9.018;2022-11-14T04:19:47;0.00;;;0.00;;
10283;SDS011;5187;52.378;9.018;2022-11-14T04:22:21;0.00;;;0.00;;
10283;SDS011;5187;52.378;9.018;2022-11-14T04:24:49;0.00;;;0.00;;
10283;SDS011;5187;52.378;9.018;2022-11-14T04:27:17;0.00;;;0.00;;
10283;SDS011;5187;52.378;9.018;2022-11-14T04:29:46;0.00;;;0.00;;
10283;SDS011;5187;52.378;9.018;2022-11-14T04:32:14;0.00;;;0.00;;
10283;SDS011;5187;52.378;9.018;2022-11-14T04:34:43;0.00;;;0.00;;
10283;SDS011;5187;52.378;9.018;2022-11-14T04:37:11;0.00;;;0.00;;
10283;SDS011;5187;52.378;9.018;2022-11-14T04:39:41;0.00;;;0.00;;
10283;SDS011;5187;52.378;9.018;2022-11-14T04:42:09;0.00;;;0.00;;
10283;SDS011;5187;52.378;9.018;2022-11-14T04:44:38;0.00;;;0.00;;
10283;SDS011;5187;52.378;9.018;2022-11-14T04:47:06;0.00;;;0.00;;
10283;SDS011;5187;52.378;9.018;2022-11-14T04:49:35;0.00;;;0.00;;
10283;SDS011;5187;52.378;9.018;2022-11-14T04:52:03;0.00;;;0.00;;
10283;SDS011;5187;52.378;9.018;2022-11-14T04:54:32;0.00;;;0.00;;
10283;SDS011;5187;52.378;9.018;2022-11-14T04:57:02;0.00;;;0.00;;
10283;SDS011;5187;52.378;9.018;2022-11-14T04:59:30;0.00;;;0.00;;
10283;SDS011;5187;52.378;9.018;2022-11-14T05:01:59;0.00;;;0.00;;
10283;SDS011;5187;52.378;9.018;2022-11-14T05:04:27;0.00;;;0.00;;
10283;SDS011;5187;52.378;9.018;2022-11-14T05:06:56;0.00;;;0.00;;
10283;SDS011;5187;52.378;9.018;2022-11-14T05:09:24;0.00;;;0.00;;
10283;SDS011;5187;52.378;9.018;2022-11-14T05:11:53;0.00;;;0.00;;
10283;SDS011;5187;52.378;9.018;2022-11-14T05:14:23;0.00;;;0.00;;
10283;SDS011;5187;52.378;9.018;2022-11-14T05:16:51;0.00;;;0.00;;
10283;SDS011;5187;52.378;9.018;2022-11-14T05:19:20;0.00;;;0.00;;
10283;SDS011;5187;52.378;9.018;2022-11-14T05:21:48;0.00;;;0.00;;
10283;SDS011;5187;52.378;9.018;2022-11-14T05:24:17;0.00;;;0.00;;
10283;SDS011;5187;52.378;9.018;2022-11-14T05:26:45;0.00;;;0.00;;
10283;SDS011;5187;52.378;9.018;2022-11-14T05:29:14;0.00;;;0.00;;
10283;SDS011;5187;52.378;9.018;2022-11-14T05:31:44;0.00;;;0.00;;
10283;SDS011;5187;52.378;9.018;2022-11-14T05:34:12;0.00;;;0.00;;
10283;SDS011;5187;52.378;9.018;2022-11-14T05:36:41;0.00;;;0.00;;
10283;SDS011;5187;52.378;9.018;2022-11-14T05:39:09;0.00;;;0.00;;
10283;SDS011;5187;52.378;9.018;2022-11-14T05:41:37;0.00;;;0.00;;
10283;SDS011;5187;52.378;9.018;2022-11-14T05:44:06;0.00;;;0.00;;
10283;SDS011;5187;52.378;9.018;2022-11-14T05:46:35;0.00;;;0.00;;
10283;SDS011;5187;52.378;9.018;2022-11-14T05:49:05;0.00;;;0.00;;
10283;SDS011;5187;52.378;9.018;2022-11-14T05:51:33;0.00;;;0.00;;
10283;SDS011;5187;52.378;9.018;2022-11-14T05:54:02;0.00;;;0.00;;
10283;SDS011;5187;52.378;9.018;2022-11-14T05:56:30;0.00;;;0.00;;
10283;SDS011;5187;52.378;9.018;2022-11-14T05:58:58;0.00;;;0.00;;
10283;SDS011;5187;52.378;9.018;2022-11-14T06:01:27;0.00;;;0.00;;
10283;SDS011;5187;52.378;9.018;2022-11-14T06:03:56;0.00;;;0.00;;
10283;SDS011;5187;52.378;9.018;2022-11-14T06:06:25;0.00;;;0.00;;
10283;SDS011;5187;52.378;9.018;2022-11-14T06:08:54;0.00;;;0.00;;
10283;SDS011;5187;52.378;9.018;2022-11-14T06:11:22;0.00;;;0.00;;
10283;SDS011;5187;52.378;9.018;2022-11-14T06:13:51;0.00;;;0.00;;
10283;SDS011;5187;52.378;9.018;2022-11-14T06:16:20;0.00;;;0.00;;
10283;SDS011;5187;52.378;9.018;2022-11-14T06:18:48;0.00;;;0.00;;
10283;SDS011;5187;52.378;9.018;2022-11-14T06:21:20;0.00;;;0.00;;
10283;SDS011;5187;52.378;9.018;2022-11-14T06:23:50;0.00;;;0.00;;
10283;SDS011;5187;52.378;9.018;2022-11-14T06:26:20;0.00;;;0.00;;
10283;SDS011;5187;52.378;9.018;2022-11-14T06:28:49;0.00;;;0.00;;
10283;SDS011;5187;52.378;9.018;2022-11-14T06:31:18;0.00;;;0.00;;
10283;SDS011;5187;52.378;9.018;2022-11-14T06:33:47;0.00;;;0.00;;
10283;SDS011;5187;52.378;9.018;2022-11-14T06:36:15;0.00;;;0.00;;
10283;SDS011;5187;52.378;9.018;2022-11-14T06:38:44;0.00;;;0.00;;
10283;SDS011;5187;52.378;9.018;2022-11-14T06:41:15;0.00;;;0.00;;
10283;SDS011;5187;52.378;9.018;2022-11-14T06:43:44;0.00;;;0.00;;
10283;SDS011;5187;52.378;9.018;2022-11-14T06:46:13;0.00;;;0.00;;
10283;SDS011;5187;52.378;9.018;2022-11-14T06:48:42;0.00;;;0.00;;
10283;SDS011;5187;52.378;9.018;2022-11-14T06:51:11;0.00;;;0.00;;
10283;SDS011;5187;52.378;9.018;2022-11-14T06:53:40;0.00;;;0.00;;
10283;SDS011;5187;52.378;9.018;2022-11-14T06:56:09;0.00;;;0.00;;
10283;SDS011;5187;52.378;9.018;2022-11-14T06:58:40;0.00;;;0.00;;
10283;SDS011;5187;52.378;9.018;2022-11-14T07:01:09;0.00;;;0.00;;
10283;SDS011;5187;52.378;9.018;2022-11-14T07:03:38;0.00;;;0.00;;
10283;SDS011;5187;52.378;9.018;2022-11-14T07:06:08;0.00;;;0.00;;
10283;SDS011;5187;52.378;9.018;2022-11-14T07:08:36;0.00;;;0.00;;
10283;SDS011;5187;52.378;9.018;2022-11-14T07:11:05;0.00;;;0.00;;
10283;SDS011;5187;52.378;9.018;2022-11-14T07:13:34;0.00;;;0.00;;
10283;SDS011;5187;52.378;9.018;2022-11-14T07:16:05;0.00;;;0.00;;
10283;SDS011;5187;52.378;9.018;2022-11-14T07:18:34;0.00;;;0.00;;
10283;SDS011;5187;52.378;9.018;2022-11-14T07:21:03;0.00;;;0.00;;
10283;SDS011;5187;52.378;9.018;2022-11-14T07:23:32;0.00;;;0.00;;
10283;SDS011;5187;52.378;9.018;2022-11-14T07:26:01;0.00;;;0.00;;
10283;SDS011;5187;52.378;9.018;2022-11-14T07:28:30;0.00;;;0.00;;
10283;SDS011;5187;52.378;9.018;2022-11-14T07:31:01;0.00;;;0.00;;
10283;SDS011;5187;52.378;9.018;2022-11-14T07:33:31;0.00;;;0.00;;
10283;SDS011;5187;52.378;9.018;2022-11-14T07:35:59;0.00;;;0.00;;
10283;SDS011;5187;52.378;9.018;2022-11-14T07:38:29;0.00;;;0.00;;
10283;SDS011;5187;52.378;9.018;2022-11-14T07:40:58;0.00;;;0.00;;
10283;SDS011;5187;52.378;9.018;2022-11-14T07:43:27;0.00;;;0.00;;
10283;SDS011;5187;52.378;9.018;2022-11-14T07:45:57;0.00;;;0.00;;
10283;SDS011;5187;52.378;9.018;2022-11-14T07:48:26;0.00;;;0.00;;
10283;SDS011;5187;52.378;9.018;2022-11-14T07:50:58;0.00;;;0.00;;
10283;SDS011;5187;52.378;9.018;2022-11-14T07:53:26;0.00;;;0.00;;
10283;SDS011;5187;52.378;9.018;2022-11-14T07:55:55;0.00;;;0.00;;
10283;SDS011;5187;52.378;9.018;2022-11-14T07:58:23;0.00;;;0.00;;
10283;SDS011;5187;52.378;9.018;2022-11-14T08:00:52;0.00;;;0.00;;
10283;SDS011;5187;52.378;9.018;2022-11-14T08:03:21;0.00;;;0.00;;
10283;SDS011;5187;52.378;9.018;2022-11-14T08:05:49;0.00;;;0.00;;
10283;SDS011;5187;52.378;9.018;2022-11-14T08:08:19;0.00;;;0.00;;
10283;SDS011;5187;52.378;9.018;2022-11-14T08:10:47;0.00;;;0.00;;
10283;SDS011;5187;52.378;9.018;2022-11-14T08:13:16;0.00;;;0.00;;
10283;SDS011;5187;52.378;9.018;2022-11-14T08:16:02;0.00;;;0.00;;
10283;SDS011;5187;52.378;9.018;2022-11-14T08:18:38;0.00;;;0.00;;
10283;SDS011;5187;52.378;9.018;2022-11-14T08:21:07;0.00;;;0.00;;
10283;SDS011;5187;52.378;9.018;2022-11-14T08:23:36;0.00;;;0.00;;
10283;SDS011;5187;52.378;9.018;2022-11-14T08:26:05;0.00;;;0.00;;
10283;SDS011;5187;52.378;9.018;2022-11-14T08:28:34;0.00;;;0.00;;
10283;SDS011;5187;52.378;9.018;2022-11-14T08:31:02;0.00;;;0.00;;
10283;SDS011;5187;52.378;9.018;2022-11-14T08:33:31;0.00;;;0.00;;
10283;SDS011;5187;52.378;9.018;2022-11-14T08:36:00;0.00;;;0.00;;
10283;SDS011;5187;52.378;9.018;2022-11-14T08:38:29;0.00;;;0.00;;
10283;SDS011;5187;52.378;9.018;2022-11-14T08:41:00;0.00;;;0.00;;
10283;SDS011;5187;52.378;9.018;2022-11-14T08:43:29;0.00;;;0.00;;
10283;SDS011;5187;52.378;9.018;2022-11-14T08:45:58;0.00;;;0.00;;
10283;SDS011;5187;52.378;9.018;2022-11-14T08:48:27;0.00;;;0.00;;
10283;SDS011;5187;52.378;9.018;2022-11-14T08:50:57;0.00;;;0.00;;
10283;SDS011;5187;52.378;9.018;2022-11-14T08:53:25;0.00;;;0.00;;
10283;SDS011;5187;52.378;9.018;2022-11-14T08:55:54;0.00;;;0.00;;
10283;SDS011;5187;52.378;9.018;2022-11-14T08:58:25;0.00;;;0.00;;
10283;SDS011;5187;52.378;9.018;2022-11-14T09:00:57;0.00;;;0.00;;
10283;SDS011;5187;52.378;9.018;2022-11-14T09:03:26;0.00;;;0.00;;
10283;SDS011;5187;52.378;9.018;2022-11-14T09:05:55;0.00;;;0.00;;
10283;SDS011;5187;52.378;9.018;2022-11-14T09:08:23;0.00;;;0.00;;
10283;SDS011;5187;52.378;9.018;2022-11-14T09:10:52;0.00;;;0.00;;
10283;SDS011;5187;52.378;9.018;2022-11-14T09:13:21;0.00;;;0.00;;
10283;SDS011;5187;52.378;9.018;2022-11-14T09:15:51;0.00;;;0.00;;
10283;SDS011;5187;52.378;9.018;2022-11-14T09:18:19;0.00;;;0.00;;
10283;SDS011;5187;52.378;9.018;2022-11-14T09:20:48;0.00;;;0.00;;
10283;SDS011;5187;52.378;9.018;2022-11-14T09:23:16;0.00;;;0.00;;
10283;SDS011;5187;52.378;9.018;2022-11-14T09:25:46;0.00;;;0.00;;
10283;SDS011;5187;52.378;9.018;2022-11-14T09:28:14;0.00;;;0.00;;
10283;SDS011;5187;52.378;9.018;2022-11-14T09:30:43;0.00;;;0.00;;
10283;SDS011;5187;52.378;9.018;2022-11-14T09:33:12;0.00;;;0.00;;
10283;SDS011;5187;52.378;9.018;2022-11-14T09:35:41;0.00;;;0.00;;
10283;SDS011;5187;52.378;9.018;2022-11-14T09:38:10;0.00;;;0.00;;
10283;SDS011;5187;52.378;9.018;2022-11-14T09:40:42;0.00;;;0.00;;
10283;SDS011;5187;52.378;9.018;2022-11-14T09:43:24;0.00;;;0.00;;
10283;SDS011;5187;52.378;9.018;2022-11-14T09:45:56;0.00;;;0.00;;
10283;SDS011;5187;52.378;9.018;2022-11-14T09:48:26;0.00;;;0.00;;
10283;SDS011;5187;52.378;9.018;2022-11-14T09:51:05;0.00;;;0.00;;
10283;SDS011;5187;52.378;9.018;2022-11-14T09:53:35;0.00;;;0.00;;
10283;SDS011;5187;52.378;9.018;2022-11-14T09:56:08;0.00;;;0.00;;
10283;SDS011;5187;52.378;9.018;2022-11-14T09:58:39;0.00;;;0.00;;
10283;SDS011;5187;52.378;9.018;2022-11-14T10:01:09;24.63;;;18.20;;
10283;SDS011;5187;52.378;9.018;2022-11-14T10:03:43;23.30;;;17.67;;
10283;SDS011;5187;52.378;9.018;2022-11-14T10:06:24;21.03;;;18.00;;
10283;SDS011;5187;52.378;9.018;2022-11-14T10:08:58;22.90;;;17.87;;
10283;SDS011;5187;52.378;9.018;2022-11-14T10:11:31;23.80;;;19.20;;
10283;SDS011;5187;52.378;9.018;2022-11-14T10:14:06;21.27;;;17.87;;
10283;SDS011;5187;52.378;9.018;2022-11-14T10:16:37;21.10;;;17.97;;
10283;SDS011;5187;52.378;9.018;2022-11-14T10:19:14;21.40;;;18.20;;
10283;SDS011;5187;52.378;9.018;2022-11-14T10:21:50;22.40;;;18.00;;
10283;SDS011;5187;52.378;9.018;2022-11-14T10:24:30;22.57;;;18.40;;
10283;SDS011;5187;52.378;9.018;2022-11-14T10:27:04;20.53;;;17.27;;
10283;SDS011;5187;52.378;9.018;2022-11-14T10:29:37;22.73;;;18.23;;
10283;SDS011;5187;52.378;9.018;2022-11-14T10:32:11;21.10;;;17.90;;
10283;SDS011;5187;52.378;9.018;2022-11-14T10:34:44;22.53;;;18.30;;
10283;SDS011;5187;52.378;9.018;2022-11-14T10:37:14;21.87;;;18.33;;
10283;SDS011;5187;52.378;9.018;2022-11-14T10:39:46;23.57;;;19.17;;
10283;SDS011;5187;52.378;9.018;2022-11-14T10:42:18;23.10;;;17.73;;
10283;SDS011;5187;52.378;9.018;2022-11-14T10:44:51;23.07;;;18.53;;
10283;SDS011;5187;52.378;9.018;2022-11-14T10:47:22;22.73;;;18.97;;
10283;SDS011;5187;52.378;9.018;2022-11-14T10:49:53;22.20;;;18.40;;
10283;SDS011;5187;52.378;9.018;2022-11-14T10:52:25;23.70;;;18.20;;
10283;SDS011;5187;52.378;9.018;2022-11-14T10:54:58;21.97;;;18.07;;
10283;SDS011;5187;52.378;9.018;2022-11-14T10:57:27;23.83;;;18.63;;
10283;SDS011;5187;52.378;9.018;2022-11-14T10:59:55;22.80;;;18.30;;
10283;SDS011;5187;52.378;9.018;2022-11-14T11:02:24;21.67;;;17.80;;
10283;SDS011;5187;52.378;9.018;2022-11-14T11:04:58;22.30;;;18.00;;
10283;SDS011;5187;52.378;9.018;2022-11-14T11:07:32;21.83;;;17.70;;
10283;SDS011;5187;52.378;9.018;2022-11-14T11:10:48;22.07;;;17.53;;
10283;SDS011;5187;52.378;9.018;2022-11-14T11:13:47;23.30;;;17.67;;
10283;SDS011;5187;52.378;9.018;2022-11-14T11:16:18;20.93;;;18.07;;
10283;SDS011;5187;52.378;9.018;2022-11-14T11:18:47;22.70;;;19.17;;
10283;SDS011;5187;52.378;9.018;2022-11-14T11:21:18;24.10;;;18.77;;
10283;SDS011;5187;52.378;9.018;2022-11-14T11:23:47;23.57;;;18.33;;
10283;SDS011;5187;52.378;9.018;2022-11-14T11:26:20;21.53;;;18.03;;
10283;SDS011;5187;52.378;9.018;2022-11-14T11:29:00;21.83;;;17.57;;
10283;SDS011;5187;52.378;9.018;2022-11-14T11:31:38;21.73;;;18.13;;
10283;SDS011;5187;52.378;9.018;2022-11-14T11:34:17;21.10;;;17.20;;
10283;SDS011;5187;52.378;9.018;2022-11-14T11:36:48;22.10;;;18.63;;
10283;SDS011;5187;52.378;9.018;2022-11-14T11:39:20;21.80;;;17.77;;
10283;SDS011;5187;52.378;9.018;2022-11-14T11:41:50;20.93;;;16.87;;
10283;SDS011;5187;52.378;9.018;2022-11-14T11:44:37;21.13;;;17.27;;
10283;SDS011;5187;52.378;9.018;2022-11-14T11:47:08;20.97;;;16.87;;
10283;SDS011;5187;52.378;9.018;2022-11-14T11:49:39;20.30;;;17.00;;
10283;SDS011;5187;52.378;9.018;2022-11-14T11:52:22;21.30;;;17.90;;
10283;SDS011;5187;52.378;9.018;2022-11-14T11:54:56;22.07;;;17.57;;
10283;SDS011;5187;52.378;9.018;2022-11-14T11:57:27;23.07;;;18.00;;
10283;SDS011;5187;52.378;9.018;2022-11-14T12:00:00;21.47;;;17.27;;
10283;SDS011;5187;52.378;9.018;2022-11-14T12:02:30;22.20;;;17.60;;
10283;SDS011;5187;52.378;9.018;2022-11-14T12:04:59;19.43;;;16.57;;
10283;SDS011;5187;52.378;9.018;2022-11-14T12:07:34;23.33;;;18.30;;
10283;SDS011;5187;52.378;9.018;2022-11-14T12:10:06;22.23;;;18.00;;
10283;SDS011;5187;52.378;9.018;2022-11-14T12:12:44;20.93;;;17.27;;
10283;SDS011;5187;52.378;9.018;2022-11-14T12:15:20;20.77;;;17.30;;
10283;SDS011;5187;52.378;9.018;2022-11-14T12:20:50;21.03;;;17.53;;
10283;SDS011;5187;52.378;9.018;2022-11-14T12:23:33;21.00;;;17.07;;
10283;SDS011;5187;52.378;9.018;2022-11-14T12:26:14;23.83;;;17.90;;
10283;SDS011;5187;52.378;9.018;2022-11-14T12:28:51;21.20;;;17.47;;
10283;SDS011;5187;52.378;9.018;2022-11-14T12:31:26;20.80;;;18.30;;
10283;SDS011;5187;52.378;9.018;2022-11-14T12:33:56;21.10;;;17.57;;
10283;SDS011;5187;52.378;9.018;2022-11-14T12:36:26;21.23;;;17.93;;
10283;SDS011;5187;52.378;9.018;2022-11-14T12:38:56;24.83;;;19.10;;
10283;SDS011;5187;52.378;9.018;2022-11-14T12:41:27;20.80;;;17.40;;
10283;SDS011;5187;52.378;9.018;2022-11-14T12:49:35;20.87;;;17.23;;
10283;SDS011;5187;52.378;9.018;2022-11-14T12:52:06;21.67;;;17.00;;
10283;SDS011;5187;52.378;9.018;2022-11-14T12:54:53;20.93;;;17.53;;
10283;SDS011;5187;52.378;9.018;2022-11-14T12:57:25;22.27;;;17.73;;
10283;SDS011;5187;52.378;9.018;2022-11-14T13:00:14;20.77;;;17.47;;
10283;SDS011;5187;52.378;9.018;2022-11-14T13:02:47;21.70;;;17.37;;
10283;SDS011;5187;52.378;9.018;2022-11-14T13:05:29;21.37;;;17.67;;
10283;SDS011;5187;52.378;9.018;2022-11-14T13:08:05;20.87;;;17.10;;
10283;SDS011;5187;52.378;9.018;2022-11-14T13:10:37;20.70;;;16.73;;
10283;SDS011;5187;52.378;9.018;2022-11-14T13:13:08;20.83;;;16.33;;
10283;SDS011;5187;52.378;9.018;2022-11-14T13:16:19;19.50;;;15.63;;
10283;SDS011;5187;52.378;9.018;2022-11-14T13:19:11;17.87;;;15.97;;
10283;SDS011;5187;52.378;9.018;2022-11-14T13:27:33;17.63;;;15.30;;
10283;SDS011;5187;52.378;9.018;2022-11-14T13:33:06;18.43;;;16.03;;
10283;SDS011;5187;52.378;9.018;2022-11-14T13:35:46;20.23;;;16.20;;
10283;SDS011;5187;52.378;9.018;2022-11-14T13:38:22;19.00;;;16.13;;
10283;SDS011;5187;52.378;9.018;2022-11-14T13:41:02;17.30;;;15.23;;
10283;SDS011;5187;52.378;9.018;2022-11-14T13:43:36;18.83;;;16.20;;
10283;SDS011;5187;52.378;9.018;2022-11-14T13:46:12;20.37;;;16.37;;
10283;SDS011;5187;52.378;9.018;2022-11-14T13:48:57;19.60;;;16.50;;
10283;SDS011;5187;52.378;9.018;2022-11-14T13:51:30;19.97;;;17.27;;
10283;SDS011;5187;52.378;9.018;2022-11-14T13:54:09;20.53;;;17.17;;
10283;SDS011;5187;52.378;9.018;2022-11-14T13:56:50;19.93;;;16.50;;
10283;SDS011;5187;52.378;9.018;2022-11-14T13:59:37;33.20;;;27.90;;
10283;SDS011;5187;52.378;9.018;2022-11-14T14:02:15;21.97;;;17.37;;
10283;SDS011;5187;52.378;9.018;2022-11-14T14:04:49;21.73;;;18.30;;
10283;SDS011;5187;52.378;9.018;2022-11-14T14:07:21;21.60;;;18.07;;
10283;SDS011;5187;52.378;9.018;2022-11-14T14:09:56;23.00;;;20.50;;
10283;SDS011;5187;52.378;9.018;2022-11-14T14:12:31;20.43;;;17.90;;
10283;SDS011;5187;52.378;9.018;2022-11-14T14:15:13;22.67;;;18.43;;
10283;SDS011;5187;52.378;9.018;2022-11-14T14:17:47;21.03;;;17.70;;
10283;SDS011;5187;52.378;9.018;2022-11-14T14:20:20;25.77;;;17.90;;
10283;SDS011;5187;52.378;9.018;2022-11-14T14:22:55;24.40;;;18.57;;
10283;SDS011;5187;52.378;9.018;2022-11-14T14:25:27;23.23;;;18.97;;
10283;SDS011;5187;52.378;9.018;2022-11-14T14:28:01;23.87;;;19.30;;
10283;SDS011;5187;52.378;9.018;2022-11-14T14:30:31;22.97;;;17.87;;
10283;SDS011;5187;52.378;9.018;2022-11-14T14:33:06;22.03;;;18.07;;
10283;SDS011;5187;52.378;9.018;2022-11-14T14:35:38;21.20;;;18.30;;
10283;SDS011;5187;52.378;9.018;2022-11-14T14:38:23;25.40;;;19.67;;
10283;SDS011;5187;52.378;9.018;2022-11-14T14:40:54;22.23;;;18.90;;
10283;SDS011;5187;52.378;9.018;2022-11-14T14:43:23;21.57;;;18.63;;
10283;SDS011;5187;52.378;9.018;2022-11-14T14:45:52;23.03;;;19.97;;
10283;SDS011;5187;52.378;9.018;2022-11-14T14:48:21;21.87;;;18.07;;
10283;SDS011;5187;52.378;9.018;2022-11-14T14:50:52;22.57;;;18.67;;
10283;SDS011;5187;52.378;9.018;2022-11-14T14:53:22;21.47;;;17.97;;
10283;SDS011;5187;52.378;9.018;2022-11-14T14:55:52;22.20;;;17.67;;
10283;SDS011;5187;52.378;9.018;2022-11-14T14:58:24;22.47;;;17.83;;
10283;SDS011;5187;52.378;9.018;2022-11-14T15:00:54;20.50;;;17.03;;
10283;SDS011;5187;52.378;9.018;2022-11-14T15:03:23;24.60;;;18.77;;
10283;SDS011;5187;52.378;9.018;2022-11-14T15:05:58;22.53;;;17.80;;
10283;SDS011;5187;52.378;9.018;2022-11-14T15:08:26;21.17;;;17.50;;
10283;SDS011;5187;52.378;9.018;2022-11-14T15:10:57;22.30;;;18.43;;
10283;SDS011;5187;52.378;9.018;2022-11-14T15:13:27;23.17;;;18.97;;
10283;SDS011;5187;52.378;9.018;2022-11-14T15:15:56;23.07;;;18.43;;
10283;SDS011;5187;52.378;9.018;2022-11-14T15:18:25;18.57;;;15.33;;
10283;SDS011;5187;52.378;9.018;2022-11-14T15:21:12;21.63;;;18.03;;
10283;SDS011;5187;52.378;9.018;2022-11-14T15:23:41;23.00;;;18.10;;
10283;SDS011;5187;52.378;9.018;2022-11-14T15:26:11;22.90;;;18.73;;
10283;SDS011;5187;52.378;9.018;2022-11-14T15:28:40;22.73;;;17.67;;
10283;SDS011;5187;52.378;9.018;2022-11-14T15:31:15;23.27;;;20.00;;
10283;SDS011;5187;52.378;9.018;2022-11-14T15:33:45;23.80;;;19.03;;